Time;durP1;ratioP1;P1;durP2;ratioP2;P2;SDS_P1;SDS_P2;PMS_P1;PMS_P2;Temp;Humidity;BMP_temperature;BMP_pressure;BME280_temperature;BME280_humidity;BME280_pressure;Samples;Min_cycle;Max_cycle;Signal;HPM_P1;HPM_P2
2022/05/27 02:48:08;;;;;;;;;;;12.70;99.90;;;;;;5153762;23;88244;-78
2022/05/27 02:50:43;;;;;;;4.20;0.90;;;12.70;99.90;;;;;;4900895;28;86952;-78
2022/05/27 02:53:28;;;;;;;2.60;1.05;;;12.70;99.90;;;;;;4894172;28;86315;-77
2022/05/27 02:56:17;;;;;;;2.10;0.80;;;12.60;99.90;;;;;;4886849;28;86575;-77
2022/05/27 02:58:43;;;;;;;;;;;12.60;99.90;;;;;;4887182;28;86750;-76
2022/05/27 03:01:09;;;;;;;4.28;0.60;;;12.50;99.90;;;;;;4893805;28;88744;-76
2022/05/27 03:03:35;;;;;;;2.25;0.60;;;12.50;99.90;;;;;;4905474;28;87774;-77
2022/05/27 03:06:43;;;;;;;4.20;0.70;;;12.40;99.90;;;;;;4905679;28;86671;-77
2022/05/27 03:09:42;;;;;;;4.22;0.70;;;12.40;99.90;;;;;;4905848;28;86705;-77
2022/05/27 03:12:29;;;;;;;4.30;0.90;;;12.40;99.90;;;;;;4906134;28;86487;-77
2022/05/27 03:15:13;;;;;;;4.43;1.00;;;12.40;99.90;;;;;;4906208;28;87121;-77
2022/05/27 03:18:09;;;;;;;3.35;0.60;;;12.40;99.90;;;;;;4905831;28;86792;-76
2022/05/27 03:21:09;;;;;;;4.20;0.98;;;12.40;99.90;;;;;;4906114;28;86147;-76
2022/05/27 03:23:57;;;;;;;2.35;0.60;;;12.40;99.90;;;;;;4874662;28;86726;-76
2022/05/27 03:26:52;;;;;;;3.63;0.70;;;12.40;99.90;;;;;;4905482;28;86980;-76
2022/05/27 03:29:33;;;;;;;3.28;0.52;;;12.40;99.90;;;;;;4905389;28;87102;-77
2022/05/27 03:32:36;;;;;;;3.53;0.70;;;12.50;99.90;;;;;;4905582;28;86698;-77
2022/05/27 03:35:05;;;;;;;;;;;12.40;99.90;;;;;;4908676;28;87196;-76
2022/05/27 03:37:40;;;;;;;3.55;0.50;;;12.40;99.90;;;;;;4909864;28;87377;-77
2022/05/27 03:40:20;;;;;;;2.67;0.63;;;12.40;99.90;;;;;;4908973;28;86647;-77
2022/05/27 03:42:47;;;;;;;2.42;0.50;;;12.40;99.90;;;;;;4908700;28;86750;-76
2022/05/27 03:45:16;;;;;;;2.97;0.63;;;12.50;99.90;;;;;;4908828;28;88170;-77
2022/05/27 03:47:43;;;;;;;2.47;0.93;;;12.50;99.90;;;;;;4908358;28;87933;-77
2022/05/27 03:50:16;;;;;;;1.80;0.63;;;12.50;99.90;;;;;;4909161;28;86804;-77
2022/05/27 03:52:48;;;;;;;2.80;0.55;;;12.60;99.90;;;;;;4910737;28;86843;-78
2022/05/27 03:55:16;;;;;;;6.35;0.63;;;12.70;99.90;;;;;;4910166;28;89685;-78
2022/05/27 03:57:42;;;;;;;2.42;0.55;;;12.80;99.90;;;;;;4910044;28;87755;-78
2022/05/27 04:00:11;;;;;;;2.83;0.85;;;12.80;99.90;;;;;;4910319;28;86943;-78
2022/05/27 04:02:37;;;;;;;2.55;0.65;;;13.00;99.90;;;;;;4910632;28;87127;-78
2022/05/27 04:05:05;;;;;;;2.67;0.50;;;13.00;99.90;;;;;;4910011;28;87825;-78
2022/05/27 04:07:30;;;;;;;1.50;0.60;;;13.10;99.90;;;;;;4909514;28;87390;-79
2022/05/27 04:09:56;;;;;;;1.63;0.50;;;13.20;99.90;;;;;;4910152;28;86662;-78
2022/05/27 04:12:22;;;;;;;2.20;0.50;;;13.40;99.90;;;;;;4910539;28;85657;-78
2022/05/27 04:14:54;;;;;;;4.45;1.10;;;13.50;99.90;;;;;;4911033;28;88210;-78
2022/05/27 04:17:30;;;;;;;5.80;1.02;;;13.70;99.90;;;;;;4910189;28;86973;-77
2022/05/27 04:20:16;;;;;;;;;;;13.80;99.90;;;;;;4910711;28;87521;-78
2022/05/27 04:22:42;;;;;;;5.60;0.73;;;13.90;99.90;;;;;;4910345;28;86697;-78
2022/05/27 04:25:08;;;;;;;1.80;0.50;;;14.10;99.90;;;;;;4909807;28;86837;-78
2022/05/27 04:27:35;;;;;;;3.53;0.82;;;14.20;99.90;;;;;;4909753;28;86770;-78
2022/05/27 04:30:00;;;;;;;2.83;0.85;;;14.30;99.90;;;;;;4909589;28;86712;-78
2022/05/27 04:32:26;;;;;;;9.50;1.38;;;14.20;99.90;;;;;;4908760;28;86977;-78
2022/05/27 04:34:53;;;;;;;2.97;0.63;;;14.00;99.90;;;;;;4908604;28;88148;-78
2022/05/27 04:37:20;;;;;;;2.55;0.57;;;14.00;99.90;;;;;;4909104;28;87292;-78
2022/05/27 04:39:46;;;;;;;2.38;0.80;;;14.10;99.90;;;;;;4909261;28;86727;-77
2022/05/27 04:42:13;;;;;;;4.60;0.65;;;14.40;99.90;;;;;;4908774;28;87014;-77
2022/05/27 04:44:38;;;;;;;4.15;0.60;;;14.60;99.90;;;;;;4907983;28;88164;-78
2022/05/27 04:47:05;;;;;;;1.77;0.55;;;14.80;99.90;;;;;;4907898;28;88783;-77
2022/05/27 04:52:16;;;;;;;2.72;0.50;;;14.90;99.90;;;;;;4908013;28;86819;-77
2022/05/27 04:54:42;;;;;;;3.47;0.70;;;14.90;99.90;;;;;;4907928;28;86876;-77
2022/05/27 04:57:13;;;;;;;2.05;0.65;;;14.80;99.90;;;;;;4910591;28;86884;-77
2022/05/27 04:59:40;;;;;;;2.20;0.85;;;14.60;99.90;;;;;;4917312;28;86783;-77
2022/05/27 05:02:06;;;;;;;2.67;0.70;;;14.50;99.90;;;;;;4914401;28;86200;-77
2022/05/27 05:04:32;;;;;;;5.93;1.00;;;14.60;99.90;;;;;;4911513;28;87314;-78
2022/05/27 05:07:08;;;;;;;3.05;1.00;;;14.70;99.90;;;;;;4909128;28;87399;-77
2022/05/27 05:09:35;;;;;;;3.47;0.77;;;14.80;99.90;;;;;;4907879;28;87665;-78
2022/05/27 05:12:01;;;;;;;11.57;0.93;;;14.80;99.90;;;;;;4910401;28;86813;-78
2022/05/27 05:14:26;;;;;;;6.53;1.23;;;15.20;99.90;;;;;;4911406;28;87597;-78
2022/05/27 05:16:52;;;;;;;1.88;0.52;;;15.70;99.90;;;;;;4911462;28;86840;-78
2022/05/27 05:19:18;;;;;;;5.22;1.17;;;16.30;97.30;;;;;;4911175;28;86771;-78
2022/05/27 05:21:44;;;;;;;4.70;0.80;;;16.80;94.40;;;;;;4909095;28;86256;-78
2022/05/27 05:24:09;;;;;;;2.60;0.77;;;17.00;93.70;;;;;;4909615;28;86807;-78
2022/05/27 05:26:35;;;;;;;3.63;0.60;;;18.20;89.90;;;;;;4909344;28;86004;-78
2022/05/27 05:29:01;;;;;;;5.28;0.50;;;19.60;81.40;;;;;;4909243;28;86862;-78
2022/05/27 05:31:27;;;;;;;2.03;0.50;;;20.70;77.30;;;;;;4910363;28;87060;-78
2022/05/27 05:33:58;;;;;;;3.35;0.80;;;21.50;68.50;;;;;;4913154;28;87747;-84
2022/05/27 05:36:24;;;;;;;2.55;0.73;;;22.40;68.10;;;;;;4917620;28;88758;-78
2022/05/27 05:38:50;;;;;;;6.70;0.75;;;23.40;63.20;;;;;;4911080;28;86296;-78
2022/05/27 05:41:38;;;;;;;3.03;0.90;;;23.80;62.30;;;;;;4913056;28;86258;-78
2022/05/27 05:44:06;;;;;;;3.03;0.52;;;24.10;59.00;;;;;;4912866;28;86631;-78
2022/05/27 05:46:33;;;;;;;2.42;0.90;;;23.80;58.40;;;;;;4910933;28;86769;-78
2022/05/27 05:48:59;;;;;;;1.40;0.43;;;23.70;60.50;;;;;;4913411;28;86816;-80
2022/05/27 05:51:25;;;;;;;3.10;0.60;;;24.40;59.20;;;;;;4914757;28;86278;-78
2022/05/27 05:53:51;;;;;;;3.45;0.57;;;24.80;59.00;;;;;;4912943;28;87449;-78
2022/05/27 05:56:16;;;;;;;4.22;0.82;;;26.50;55.00;;;;;;4913720;28;87155;-78
2022/05/27 05:58:43;;;;;;;5.38;1.13;;;27.70;50.60;;;;;;4912476;28;86896;-78
2022/05/27 06:01:09;;;;;;;1.98;0.80;;;27.60;51.30;;;;;;4914291;28;86633;-78
2022/05/27 06:03:34;;;;;;;2.58;0.90;;;28.30;48.10;;;;;;4911181;28;88445;-78
2022/05/27 06:06:00;;;;;;;3.17;0.77;;;28.30;47.40;;;;;;4906852;28;86781;-76
2022/05/27 06:08:27;;;;;;;2.90;1.08;;;28.80;47.30;;;;;;4907706;28;86675;-76
2022/05/27 06:10:53;;;;;;;1.60;0.77;;;28.40;46.60;;;;;;4906725;28;86810;-77
2022/05/27 06:13:19;;;;;;;4.70;1.70;;;28.60;48.20;;;;;;4907822;28;87659;-79
2022/05/27 06:15:45;;;;;;;3.80;0.88;;;30.40;44.70;;;;;;4908029;28;88000;-78
2022/05/27 06:18:13;;;;;;;4.25;1.23;;;31.40;44.50;;;;;;4910183;28;86902;-79
2022/05/27 06:20:40;;;;;;;2.75;1.50;;;32.90;42.30;;;;;;4915809;28;86589;-79
2022/05/27 06:23:07;;;;;;;3.33;1.70;;;32.40;40.80;;;;;;4912759;28;89190;-79
2022/05/27 06:25:33;;;;;;;2.17;1.30;;;32.80;40.30;;;;;;4913423;28;88820;-79
2022/05/27 06:36:15;;;;;;;2.25;1.33;;;30.40;42.80;;;;;;4913496;28;86768;-80
2022/05/27 06:38:41;;;;;;;2.80;1.38;;;30.00;42.90;;;;;;4912097;28;86885;-81
2022/05/27 06:41:07;;;;;;;4.60;1.67;;;29.90;43.20;;;;;;4905602;28;86379;-81
2022/05/27 06:43:33;;;;;;;4.55;1.10;;;30.40;42.90;;;;;;4902558;28;89610;-85
2022/05/27 06:46:00;;;;;;;3.15;1.33;;;32.00;41.00;;;;;;4898905;28;87118;-81
2022/05/27 06:48:26;;;;;;;3.15;1.30;;;32.70;39.90;;;;;;4893037;28;88049;-80
2022/05/27 06:50:52;;;;;;;1.83;0.98;;;33.10;40.50;;;;;;4893421;28;87415;-79
2022/05/27 06:53:18;;;;;;;3.83;2.53;;;35.90;37.80;;;;;;4897344;28;89006;-79
2022/05/27 06:55:52;;;;;;;3.03;1.38;;;34.90;37.30;;;;;;4896152;28;87320;-79
2022/05/27 06:58:18;;;;;;;2.80;1.80;;;35.80;38.80;;;;;;4889074;28;87104;-79
2022/05/27 07:00:44;;;;;;;3.60;2.35;;;35.70;35.90;;;;;;4893207;28;87130;-79
2022/05/27 07:03:10;;;;;;;2.20;1.35;;;33.80;37.20;;;;;;4897219;28;89819;-78
2022/05/27 07:05:36;;;;;;;5.13;1.65;;;32.80;39.60;;;;;;4896489;28;86430;-79
2022/05/27 07:08:03;;;;;;;3.63;1.50;;;33.40;38.70;;;;;;4897324;28;86910;-78
2022/05/27 07:10:29;;;;;;;2.05;1.00;;;32.50;38.20;;;;;;4884839;28;86976;-78
2022/05/27 07:12:56;;;;;;;1.75;1.20;;;32.90;38.20;;;;;;4899728;28;88278;-78
2022/05/27 07:15:21;;;;;;;3.28;1.13;;;33.90;40.10;;;;;;4895444;28;89913;-78
2022/05/27 07:17:47;;;;;;;4.15;1.48;;;36.70;35.30;;;;;;4899090;28;87050;-79
2022/05/27 07:20:13;;;;;;;3.78;1.55;;;37.40;35.80;;;;;;4899142;28;86921;-79
2022/05/27 07:22:38;;;;;;;3.10;1.95;;;39.40;32.60;;;;;;4897254;28;87959;-79
2022/05/27 07:25:04;;;;;;;3.53;1.45;;;39.40;31.60;;;;;;4898781;28;87184;-79
2022/05/27 07:27:30;;;;;;;2.72;1.98;;;37.90;33.10;;;;;;4909950;28;86862;-78
2022/05/27 07:29:56;;;;;;;4.75;2.03;;;38.50;33.40;;;;;;4908438;28;86059;-78
2022/05/27 07:32:21;;;;;;;10.20;2.33;;;40.10;31.60;;;;;;4911584;28;86732;-78
2022/05/27 07:34:47;;;;;;;5.10;2.40;;;41.40;30.70;;;;;;4911689;28;86973;-78
2022/05/27 07:37:13;;;;;;;3.35;2.15;;;42.20;31.80;;;;;;4912213;28;87563;-78
2022/05/27 07:39:39;;;;;;;3.53;3.22;;;39.80;30.50;;;;;;4909195;28;86652;-77
2022/05/27 07:42:05;;;;;;;7.38;2.10;;;39.10;32.20;;;;;;4912174;28;86573;-78
2022/05/27 07:44:31;;;;;;;2.40;1.83;;;39.40;32.00;;;;;;4911828;28;86594;-78
2022/05/27 07:46:57;;;;;;;1.92;1.58;;;38.90;31.70;;;;;;4906660;28;86684;-77
2022/05/27 07:49:22;;;;;;;2.38;1.83;;;39.60;30.90;;;;;;4908752;28;86797;-77
2022/05/27 07:51:48;;;;;;;2.67;1.55;;;39.60;31.60;;;;;;4906761;28;88035;-77
2022/05/27 07:54:14;;;;;;;3.25;2.30;;;40.60;31.90;;;;;;4909251;28;87443;-77
2022/05/27 07:56:40;;;;;;;3.10;1.65;;;40.80;31.10;;;;;;4908834;28;86803;-77
2022/05/27 07:59:06;;;;;;;3.13;2.40;;;41.40;32.10;;;;;;4908088;28;87034;-77
2022/05/27 08:01:32;;;;;;;5.60;2.00;;;42.10;31.00;;;;;;4907723;28;88215;-79
2022/05/27 08:03:57;;;;;;;2.92;2.35;;;42.30;30.00;;;;;;4911059;28;89293;-79
2022/05/27 08:06:23;;;;;;;2.63;2.00;;;43.10;31.20;;;;;;4914650;28;86567;-79
2022/05/27 08:08:49;;;;;;;2.47;2.13;;;43.60;29.90;;;;;;4915210;28;86636;-79
2022/05/27 08:11:15;;;;;;;3.22;2.92;;;43.60;30.50;;;;;;4912491;28;86659;-78
2022/05/27 08:13:42;;;;;;;3.38;3.08;;;44.60;28.70;;;;;;4910249;28;86674;-78
2022/05/27 08:16:08;;;;;;;2.92;2.45;;;44.50;29.10;;;;;;4910883;28;86832;-78
2022/05/27 08:18:34;;;;;;;5.80;2.22;;;44.60;28.20;;;;;;4910259;28;86118;-78
2022/05/27 08:21:00;;;;;;;5.32;3.25;;;45.20;28.40;;;;;;4914528;28;86909;-78
2022/05/27 08:23:26;;;;;;;5.97;2.90;;;44.90;28.30;;;;;;4906606;28;87278;-78
2022/05/27 08:25:55;;;;;;;4.05;2.97;;;45.00;29.00;;;;;;4910867;28;87736;-78
2022/05/27 08:28:24;;;;;;;5.35;3.22;;;45.90;28.40;;;;;;4915153;28;86386;-78
2022/05/27 08:30:51;;;;;;;5.80;3.47;;;46.60;28.00;;;;;;4913385;28;87095;-79
2022/05/27 08:33:17;;;;;;;3.30;3.00;;;43.00;29.00;;;;;;4914089;28;87470;-78
2022/05/27 08:38:34;;;;;;;5.25;2.72;;;45.50;28.00;;;;;;4915311;28;86882;-79
2022/05/27 08:41:30;;;;;;;3.70;2.95;;;44.50;28.50;;;;;;4914759;28;89499;-80
2022/05/27 08:44:11;;;;;;;4.18;3.13;;;45.10;28.70;;;;;;4914155;28;89293;-78
2022/05/27 08:47:04;;;;;;;2.83;2.60;;;46.30;27.80;;;;;;4913125;28;86804;-78
2022/05/27 08:49:37;;;;;;;6.50;3.38;;;44.70;27.50;;;;;;4913916;28;86585;-78
2022/05/27 08:52:27;;;;;;;4.18;3.67;;;44.60;28.10;;;;;;4912812;28;87979;-78
2022/05/27 08:54:59;;;;;;;3.63;3.33;;;44.90;28.90;;;;;;4912980;28;89363;-78
2022/05/27 09:00:17;;;;;;;4.03;3.42;;;47.90;27.40;;;;;;4910202;28;88852;-79
2022/05/27 09:03:03;;;;;;;3.80;3.25;;;48.40;26.90;;;;;;4912433;28;87169;-78
2022/05/27 09:05:37;;;;;;;4.20;3.03;;;46.80;27.20;;;;;;4912272;28;86703;-79
2022/05/27 09:08:05;;;;;;;3.47;3.03;;;47.30;27.60;;;;;;4921199;28;86638;-79
2022/05/27 09:10:51;;;;;;;4.40;3.72;;;45.30;28.50;;;;;;4915504;28;86388;-78
2022/05/27 09:13:34;;;;;;;4.75;3.33;;;46.40;28.80;;;;;;4913721;28;87161;-78
2022/05/27 09:16:27;;;;;;;3.55;3.00;;;44.70;28.80;;;;;;4911248;28;87312;-78
2022/05/27 09:19:20;;;;;;;4.65;3.25;;;44.60;28.30;;;;;;4909353;28;87620;-78
2022/05/27 09:22:05;;;;;;;;;;;44.10;28.30;;;;;;4910865;28;86310;-78
2022/05/27 09:24:39;;;;;;;4.22;2.75;;;42.00;28.40;;;;;;4910125;28;86553;-78
2022/05/27 09:27:16;;;;;;;3.70;3.33;;;43.30;29.50;;;;;;4907862;28;86921;-78
2022/05/27 09:29:57;;;;;;;3.53;2.42;;;45.10;29.20;;;;;;4908808;28;86693;-78
2022/05/27 09:32:45;;;;;;;2.67;2.30;;;45.10;27.80;;;;;;4908222;28;86757;-77
2022/05/27 09:35:13;;;;;;;;;;;44.70;29.10;;;;;;4908470;28;87195;-77
2022/05/27 09:37:45;;;;;;;3.30;3.00;;;46.70;27.80;;;;;;4910427;28;85964;-77
2022/05/27 09:40:39;;;;;;;4.38;2.92;;;45.80;28.40;;;;;;4909240;28;86781;-78
2022/05/27 09:43:21;;;;;;;3.85;3.15;;;45.00;29.30;;;;;;4908838;28;86976;-77
2022/05/27 09:46:00;;;;;;;2.60;2.22;;;44.20;28.80;;;;;;4907886;28;88653;-77
2022/05/27 09:48:26;;;;;;;3.75;3.13;;;42.30;28.70;;;;;;4908110;28;87112;-77
2022/05/27 09:50:56;;;;;;;3.25;2.55;;;41.60;29.80;;;;;;4909154;28;86858;-78
2022/05/27 09:53:31;;;;;;;3.53;2.20;;;42.00;29.80;;;;;;4913310;28;86745;-81
2022/05/27 09:56:04;;;;;;;4.75;2.80;;;42.40;30.00;;;;;;4917765;28;88003;-79
2022/05/27 09:58:36;;;;;;;4.68;2.65;;;40.30;29.40;;;;;;4917993;28;86325;-80
2022/05/27 10:01:17;;;;;;;2.83;2.47;;;41.60;30.80;;;;;;4917847;28;86248;-79
2022/05/27 10:03:43;;;;;;;;;;;39.60;31.00;;;;;;4919084;28;85532;-79
2022/05/27 10:06:15;;;;;;;3.38;2.63;;;39.40;32.00;;;;;;4920445;28;87023;-79
2022/05/27 10:08:53;;;;;;;4.43;2.05;;;39.30;31.10;;;;;;4917824;28;88432;-80
2022/05/27 10:11:50;;;;;;;2.50;1.75;;;37.10;32.50;;;;;;4917537;28;87606;-79
2022/05/27 10:14:33;;;;;;;3.95;1.80;;;34.20;37.00;;;;;;4914752;28;86567;-79
2022/05/27 10:17:08;;;;;;;4.35;1.83;;;31.80;39.60;;;;;;4918514;28;86686;-79
2022/05/27 10:19:34;;;;;;;2.85;1.77;;;31.00;41.80;;;;;;4916891;28;87887;-79
2022/05/27 10:22:06;;;;;;;2.90;1.45;;;30.10;44.30;;;;;;4916794;28;86275;-79
2022/05/27 10:24:44;;;;;;;1.90;1.05;;;28.60;45.20;;;;;;4917098;28;86611;-79
2022/05/27 10:27:12;;;;;;;1.67;0.90;;;27.70;48.80;;;;;;4917111;28;87795;-79
2022/05/27 10:29:55;;;;;;;2.45;1.30;;;27.40;49.10;;;;;;4915197;28;88310;-79
2022/05/27 10:32:43;;;;;;;1.75;0.68;;;26.60;50.40;;;;;;4915687;28;86778;-79
2022/05/27 10:35:31;;;;;;;2.15;0.65;;;26.40;52.80;;;;;;4915186;28;86676;-79
2022/05/27 10:38:38;;;;;;;5.68;0.90;;;26.40;53.90;;;;;;4914856;28;88262;-81
2022/05/27 10:41:25;;;;;;;2.20;0.57;;;26.40;52.30;;;;;;4913557;28;88897;-81
2022/05/27 10:44:27;;;;;;;2.83;0.77;;;26.10;52.60;;;;;;4916317;28;86819;-81
2022/05/27 10:46:55;;;;;;;2.95;0.98;;;25.90;56.00;;;;;;4916079;28;86774;-81
2022/05/27 10:49:43;;;;;;;2.80;0.82;;;26.10;51.80;;;;;;4917419;28;87462;-81
2022/05/27 10:52:43;;;;;;;2.13;1.02;;;25.80;50.90;;;;;;4909823;28;88479;-81
2022/05/27 10:55:36;;;;;;;2.03;0.75;;;25.90;55.00;;;;;;4894023;28;86786;-81
2022/05/27 11:02:07;;;;;;;3.78;0.70;;;25.70;53.10;;;;;;4910982;28;86820;-80
2022/05/27 11:04:45;;;;;;;3.63;0.90;;;25.40;55.60;;;;;;4915929;28;86816;-80
2022/05/27 11:07:21;;;;;;;4.15;0.75;;;25.40;54.60;;;;;;4914503;28;87736;-80
2022/05/27 11:10:01;;;;;;;3.95;1.00;;;25.30;54.20;;;;;;4910990;28;86798;-80
2022/05/27 11:15:10;;;;;;;3.25;0.70;;;25.50;53.60;;;;;;4915221;28;88468;-80
2022/05/27 11:15:40;;;;;;;2.15;0.65;;;24.90;55.00;;;;;;4918947;28;88682;-80
2022/05/27 11:18:12;;;;;;;3.30;1.00;;;24.60;58.10;;;;;;4919244;28;86680;-80
2022/05/27 11:21:18;;;;;;;4.82;0.63;;;24.70;56.40;;;;;;4919530;28;86591;-80
2022/05/27 11:24:02;;;;;;;3.03;0.73;;;25.10;59.70;;;;;;4876584;29;88366;-79
2022/05/27 11:26:43;;;;;;;3.70;0.90;;;25.20;56.20;;;;;;4915309;28;86272;-79
2022/05/27 11:29:24;;;;;;;1.95;0.60;;;25.10;55.50;;;;;;4914367;28;86837;-79
2022/05/27 11:32:01;;;;;;;2.42;0.65;;;25.10;56.90;;;;;;4916629;28;86622;-80
2022/05/27 11:34:56;;;;;;;2.47;1.05;;;25.10;59.10;;;;;;4916152;28;88213;-80
2022/05/27 11:37:44;;;;;;;2.17;0.60;;;25.10;55.10;;;;;;4905151;28;87246;-79
2022/05/27 11:40:17;;;;;;;1.88;0.43;;;25.00;57.90;;;;;;4913025;28;86826;-79
2022/05/27 11:42:44;;;;;;;2.45;0.60;;;25.00;57.50;;;;;;4906733;28;86751;-79
2022/05/27 11:45:28;;;;;;;2.63;0.80;;;24.70;57.70;;;;;;4909247;28;88176;-78
2022/05/27 11:48:04;;;;;;;3.33;1.15;;;24.80;59.60;;;;;;4908770;28;87332;-78
2022/05/27 11:50:58;;;;;;;3.22;0.57;;;24.70;59.40;;;;;;4909173;28;86730;-78
2022/05/27 11:53:42;;;;;;;4.15;0.50;;;24.60;58.80;;;;;;4905120;28;87499;-79
2022/05/27 11:56:33;;;;;;;2.38;0.35;;;24.50;58.50;;;;;;4910215;28;86826;-79
2022/05/27 11:59:17;;;;;;;2.55;0.43;;;24.40;59.80;;;;;;4917488;28;87856;-78
2022/05/27 12:01:50;;;;;;;2.65;0.63;;;24.60;60.30;;;;;;4915666;28;87436;-79
2022/05/27 12:04:43;;;;;;;4.57;0.88;;;24.80;61.60;;;;;;4912128;28;87091;-79
2022/05/27 12:07:30;;;;;;;5.13;0.90;;;24.70;60.90;;;;;;4916220;28;88709;-79
2022/05/27 12:10:24;;;;;;;3.50;0.45;;;24.60;61.10;;;;;;4915721;28;87193;-79
2022/05/27 12:13:25;;;;;;;3.72;0.50;;;24.70;60.60;;;;;;4918975;28;86781;-80
2022/05/27 12:16:01;;;;;;;2.50;0.63;;;24.70;61.70;;;;;;4917434;28;86618;-79
2022/05/27 12:18:51;;;;;;;2.60;0.70;;;24.60;58.80;;;;;;4918308;28;87246;-79
2022/05/27 12:21:21;;;;;;;3.10;0.45;;;24.30;60.00;;;;;;4916455;28;86414;-79
2022/05/27 12:24:16;;;;;;;2.67;0.55;;;24.20;58.20;;;;;;4913476;28;86406;-79
2022/05/27 12:26:43;;;;;;;2.92;0.50;;;24.20;61.40;;;;;;4898648;28;86766;-79
2022/05/27 12:29:12;;;;;;;1.48;0.30;;;24.30;61.60;;;;;;4913124;28;88621;-78
2022/05/27 12:31:38;;;;;;;;;;;24.30;61.80;;;;;;4910108;28;86894;-79
2022/05/27 12:34:25;;;;;;;2.78;0.40;;;24.60;60.40;;;;;;4916138;28;85938;-78
2022/05/27 12:36:51;;;;;;;1.70;0.55;;;24.40;60.20;;;;;;4916641;28;86972;-79
2022/05/27 12:39:24;;;;;;;3.28;0.57;;;24.40;59.90;;;;;;4913603;28;87614;-79
2022/05/27 12:42:18;;;;;;;1.35;0.43;;;24.40;62.80;;;;;;4916060;28;87051;-80
2022/05/27 12:44:45;;;;;;;2.13;0.55;;;24.40;59.80;;;;;;4919918;28;86579;-79
2022/05/27 12:47:35;;;;;;;3.88;0.63;;;24.50;60.10;;;;;;4916790;28;86423;-79
2022/05/27 12:50:20;;;;;;;3.63;0.73;;;24.60;58.30;;;;;;4919654;28;87616;-79
2022/05/27 12:52:49;;;;;;;2.17;0.80;;;24.40;62.00;;;;;;4918788;28;86782;-79
2022/05/27 13:00:55;;;;;;;1.05;0.30;;;24.20;59.90;;;;;;4919144;28;87695;-79
2022/05/27 13:01:22;;;;;;;0.88;0.30;;;23.90;59.00;;;;;;4915382;28;86580;-80
2022/05/27 13:03:51;;;;;;;2.88;0.50;;;23.90;60.40;;;;;;4904952;28;86565;-80
2022/05/27 13:06:19;;;;;;;1.58;0.32;;;23.60;61.60;;;;;;4912584;28;90158;-78
2022/05/27 13:08:51;;;;;;;2.22;0.50;;;23.80;60.80;;;;;;4909275;28;86860;-78
2022/05/27 13:11:22;;;;;;;2.53;0.47;;;23.80;60.80;;;;;;4911457;28;89065;-78
2022/05/27 13:14:08;;;;;;;3.45;0.50;;;23.90;62.50;;;;;;4911889;28;87424;-78
2022/05/27 13:16:58;;;;;;;3.33;0.52;;;24.00;60.30;;;;;;4911504;28;86665;-78
2022/05/27 13:19:50;;;;;;;2.20;0.30;;;24.20;60.10;;;;;;4911584;28;86843;-78
2022/05/27 13:22:48;;;;;;;1.38;0.43;;;24.30;61.40;;;;;;4897366;28;89090;-79
2022/05/27 13:25:29;;;;;;;1.80;0.40;;;24.00;61.40;;;;;;4898827;28;87308;-79
2022/05/27 13:28:23;;;;;;;2.75;0.40;;;24.00;60.60;;;;;;4898240;28;86660;-79
2022/05/27 13:31:03;;;;;;;2.17;0.65;;;24.30;61.30;;;;;;4905245;28;86237;-81
2022/05/27 13:33:37;;;;;;;1.55;0.50;;;24.30;61.10;;;;;;4909889;28;87017;-80
2022/05/27 13:36:17;;;;;;;2.08;0.50;;;24.20;61.00;;;;;;4910785;28;87332;-80
2022/05/27 13:38:49;;;;;;;1.65;0.63;;;24.20;60.20;;;;;;4904994;28;86637;-81
2022/05/27 13:41:17;;;;;;;1.00;0.38;;;24.30;61.70;;;;;;4910616;28;86281;-80
2022/05/27 13:43:47;;;;;;;3.03;0.38;;;24.30;60.70;;;;;;4910560;28;88159;-80
2022/05/27 13:46:22;;;;;;;2.35;0.40;;;24.20;60.00;;;;;;4900437;28;88236;-78
2022/05/27 13:48:57;;;;;;;3.90;0.60;;;24.10;61.70;;;;;;4900879;28;89177;-80
2022/05/27 13:51:25;;;;;;;3.33;0.43;;;24.10;61.30;;;;;;4909364;28;87064;-78
2022/05/27 13:53:52;;;;;;;2.40;0.40;;;24.20;59.70;;;;;;4902735;28;87392;-80
2022/05/27 13:56:34;;;;;;;2.08;0.32;;;24.20;60.30;;;;;;4908855;28;87030;-80
2022/05/27 13:59:15;;;;;;;1.20;0.32;;;24.30;59.60;;;;;;4911598;28;87432;-80
2022/05/27 14:01:55;;;;;;;3.30;0.35;;;24.00;59.70;;;;;;4899701;28;87083;-80
2022/05/27 14:04:26;;;;;;;1.52;0.32;;;24.00;60.40;;;;;;4913583;28;88166;-80
2022/05/27 14:06:52;;;;;;;1.85;0.28;;;24.00;59.80;;;;;;4907045;28;86520;-80
2022/05/27 14:09:25;;;;;;;2.10;0.30;;;24.30;59.40;;;;;;4910661;28;86882;-80
2022/05/27 14:11:56;;;;;;;1.30;0.60;;;24.30;59.60;;;;;;4896921;28;87390;-80
2022/05/27 14:14:37;;;;;;;1.20;0.30;;;24.50;61.70;;;;;;4909839;28;87874;-80
2022/05/27 14:17:04;;;;;;;1.75;0.50;;;24.30;60.00;;;;;;4906983;28;87175;-80
2022/05/27 14:19:29;;;;;;;2.30;0.40;;;24.30;59.40;;;;;;4908222;28;86908;-80
2022/05/27 14:24:59;;;;;;;1.67;0.30;;;24.40;60.00;;;;;;4905221;28;87368;-80
2022/05/27 14:27:27;;;;;;;1.52;0.30;;;24.50;58.00;;;;;;4909918;28;88074;-80
2022/05/27 14:30:23;;;;;;;4.15;0.28;;;24.10;59.50;;;;;;4909612;28;86922;-79
2022/05/27 14:32:49;;;;;;;0.90;0.38;;;24.10;58.80;;;;;;4903124;28;87138;-80
2022/05/27 14:35:22;;;;;;;1.35;0.20;;;24.00;59.50;;;;;;4892695;28;89255;-78
2022/05/27 14:37:58;;;;;;;0.60;0.20;;;24.10;59.70;;;;;;4910794;28;87297;-78
2022/05/27 14:40:51;;;;;;;1.05;0.20;;;24.10;59.70;;;;;;4902685;28;88001;-80
2022/05/27 14:43:35;;;;;;;1.42;0.30;;;24.10;59.30;;;;;;4898682;28;87184;-79
2022/05/27 14:46:12;;;;;;;1.55;0.57;;;24.10;59.50;;;;;;4896288;28;87882;-79
2022/05/27 14:48:38;;;;;;;2.22;0.32;;;24.10;59.30;;;;;;4896207;28;87043;-79
2022/05/27 14:51:27;;;;;;;4.18;0.35;;;24.10;59.00;;;;;;4902705;28;86892;-80
2022/05/27 14:53:55;;;;;;;3.28;0.30;;;23.90;59.90;;;;;;4902023;28;87231;-80
2022/05/27 14:56:28;;;;;;;1.80;0.20;;;23.90;60.30;;;;;;4903114;28;87468;-78
2022/05/27 14:59:08;;;;;;;2.15;0.50;;;24.00;59.90;;;;;;4904570;28;86363;-78
2022/05/27 15:01:40;;;;;;;1.63;0.38;;;24.00;58.90;;;;;;4900985;28;86941;-79
2022/05/27 15:04:27;;;;;;;1.17;0.22;;;24.00;59.60;;;;;;4901561;28;86925;-79
2022/05/27 15:06:55;;;;;;;2.50;0.20;;;23.90;58.70;;;;;;4888680;28;88063;-79
2022/05/27 15:09:34;;;;;;;1.08;0.30;;;23.70;58.40;;;;;;4893204;28;87980;-79
2022/05/27 15:12:21;;;;;;;2.15;0.52;;;23.70;58.00;;;;;;4904154;28;87381;-78
2022/05/27 15:14:48;;;;;;;2.65;0.50;;;23.70;58.70;;;;;;4911624;28;86744;-77
2022/05/27 15:17:23;;;;;;;1.40;0.30;;;23.90;59.00;;;;;;4911483;28;87793;-78
2022/05/27 15:20:10;;;;;;;1.40;0.20;;;24.00;58.60;;;;;;4909509;28;86538;-78
2022/05/27 15:22:55;;;;;;;1.52;0.30;;;24.00;58.60;;;;;;4899360;28;86725;-78
2022/05/27 15:25:28;;;;;;;0.60;0.20;;;24.00;57.50;;;;;;4908082;28;85966;-78
2022/05/27 15:33:53;;;;;;;1.92;0.30;;;23.90;58.00;;;;;;4910624;28;87711;-78
2022/05/27 15:36:20;;;;;;;;;;;24.00;58.20;;;;;;4912269;28;86667;-78
2022/05/27 15:38:47;;;;;;;0.85;0.20;;;24.00;57.80;;;;;;4914312;28;89934;-78
2022/05/27 15:41:17;;;;;;;1.17;0.32;;;24.10;57.10;;;;;;4911148;28;87712;-77
2022/05/27 15:43:45;;;;;;;0.95;0.30;;;23.90;56.90;;;;;;4908694;28;86689;-77
2022/05/27 15:46:17;;;;;;;1.45;0.20;;;23.90;57.00;;;;;;4908792;28;87050;-77
2022/05/27 15:48:43;;;;;;;6.40;0.30;;;23.90;57.40;;;;;;4909304;28;88526;-77
2022/05/27 15:51:10;;;;;;;1.08;0.20;;;23.90;58.60;;;;;;4909326;28;86081;-77
2022/05/27 15:53:35;;;;;;;1.35;0.90;;;23.90;59.10;;;;;;4909535;28;86598;-77
2022/05/27 15:56:02;;;;;;;2.40;0.30;;;23.90;58.40;;;;;;4910123;28;86711;-78
2022/05/27 15:58:28;;;;;;;2.35;0.20;;;23.80;59.00;;;;;;4908288;28;87762;-77
2022/05/27 16:00:54;;;;;;;1.13;0.32;;;23.70;57.60;;;;;;4909118;28;88476;-78
2022/05/27 16:03:22;;;;;;;1.75;0.43;;;23.60;57.70;;;;;;4909376;28;86268;-78
2022/05/27 16:05:49;;;;;;;1.33;0.20;;;23.70;58.40;;;;;;4909376;28;86871;-78
2022/05/27 16:08:16;;;;;;;3.20;0.20;;;23.70;57.60;;;;;;4909052;28;87676;-78
2022/05/27 16:10:42;;;;;;;1.45;0.40;;;23.50;57.30;;;;;;4908979;28;86704;-78
2022/05/27 16:13:09;;;;;;;1.73;0.45;;;23.50;57.70;;;;;;4909419;28;86822;-80
2022/05/27 16:15:36;;;;;;;1.55;0.25;;;23.40;58.00;;;;;;4916066;28;86068;-78
2022/05/27 16:18:02;;;;;;;1.10;0.32;;;23.40;57.20;;;;;;4912802;28;86891;-79
2022/05/27 16:20:32;;;;;;;2.78;0.50;;;23.60;58.90;;;;;;4911438;28;88370;-79
2022/05/27 16:22:59;;;;;;;2.25;0.40;;;23.70;57.90;;;;;;4911029;28;87604;-79
2022/05/27 16:25:28;;;;;;;1.35;0.35;;;23.90;58.00;;;;;;4912332;28;87028;-79
2022/05/27 16:27:55;;;;;;;1.63;0.30;;;24.00;57.40;;;;;;4911614;28;87631;-79
2022/05/27 16:30:24;;;;;;;2.15;0.20;;;24.00;56.70;;;;;;4911357;28;87753;-79
2022/05/27 16:32:51;;;;;;;2.75;0.30;;;24.00;56.00;;;;;;4911107;28;86803;-79
2022/05/27 16:35:18;;;;;;;1.55;0.20;;;24.10;56.00;;;;;;4911669;28;86786;-79
2022/05/27 16:37:44;;;;;;;1.70;0.30;;;24.20;56.10;;;;;;4910950;28;86685;-79
2022/05/27 16:40:11;;;;;;;2.95;0.20;;;24.30;56.10;;;;;;4911568;28;86901;-79
2022/05/27 16:42:38;;;;;;;3.00;0.35;;;24.30;54.70;;;;;;4910846;28;86677;-79